Time;durP1;ratioP1;P1;durP2;ratioP2;P2;SDS_P1;SDS_P2;PMS_P1;PMS_P2;Temp;Humidity;BMP_temperature;BMP_pressure;BME280_temperature;BME280_humidity;BME280_pressure;Samples;Min_cycle;Max_cycle;Signal;HPM_P1;HPM_P2
2022/12/22 03:25:53;;;;;;;40.20;7.27;;;;;;;;;;5135221;27;20893;-80
2022/12/22 03:28:21;;;;;;;55.83;7.57;;;;;;;;;;5134484;27;20260;-81
2022/12/22 03:30:54;;;;;;;54.33;7.97;;;;;;;;;;5135494;27;20257;-81
2022/12/22 03:33:23;;;;;;;53.83;7.60;;;;;;;;;;5133908;27;20228;-81
2022/12/22 03:35:50;;;;;;;55.90;7.23;;;;;;;;;;5135275;27;20240;-81
2022/12/22 03:38:17;;;;;;;54.73;8.93;;;;;;;;;;5135043;27;20236;-81
2022/12/22 03:40:44;;;;;;;53.50;7.53;;;;;;;;;;5135044;27;20197;-80
2022/12/22 03:49:11;;;;;;;48.77;7.37;;;;;;;;;;5134187;27;20230;-81
2022/12/22 03:51:39;;;;;;;46.33;7.87;;;;;;;;;;5133195;27;20220;-81
2022/12/22 03:54:07;;;;;;;51.13;8.13;;;;;;;;;;5133472;27;20220;-80
2022/12/22 03:56:35;;;;;;;50.83;8.17;;;;;;;;;;5134492;27;20697;-80
2022/12/22 03:59:02;;;;;;;52.20;8.20;;;;;;;;;;5134315;27;20236;-80
2022/12/22 04:01:29;;;;;;;51.53;8.13;;;;;;;;;;5134208;27;20289;-81
2022/12/22 04:03:58;;;;;;;47.87;7.43;;;;;;;;;;5134261;27;20268;-81
2022/12/22 04:06:25;;;;;;;54.80;7.67;;;;;;;;;;5133469;27;20672;-80
2022/12/22 04:08:52;;;;;;;53.47;7.20;;;;;;;;;;5134052;27;20707;-81
2022/12/22 04:14:05;;;;;;;47.43;7.13;;;;;;;;;;5134141;27;20276;-81
2022/12/22 04:16:32;;;;;;;49.73;6.57;;;;;;;;;;5132998;27;20224;-80
2022/12/22 04:19:01;;;;;;;46.47;7.43;;;;;;;;;;5134067;27;20814;-81
2022/12/22 04:21:28;;;;;;;47.37;7.87;;;;;;;;;;5134384;27;20193;-81
2022/12/22 04:23:55;;;;;;;44.67;6.70;;;;;;;;;;5133191;27;21065;-81
2022/12/22 04:26:24;;;;;;;53.33;8.10;;;;;;;;;;5134392;27;20255;-81
2022/12/22 04:28:51;;;;;;;53.63;7.87;;;;;;;;;;5133468;27;20228;-81
2022/12/22 04:31:19;;;;;;;49.43;8.07;;;;;;;;;;5134217;27;20260;-81
2022/12/22 04:33:46;;;;;;;45.10;7.63;;;;;;;;;;5123265;27;20299;-81
2022/12/22 04:36:15;;;;;;;52.70;7.30;;;;;;;;;;5132166;27;20291;-81
2022/12/22 04:38:42;;;;;;;43.87;7.07;;;;;;;;;;5133168;27;20236;-81
2022/12/22 04:41:09;;;;;;;50.40;7.10;;;;;;;;;;5133228;27;20672;-81
2022/12/22 04:43:37;;;;;;;57.33;8.37;;;;;;;;;;5132672;27;20702;-81
2022/12/22 04:46:04;;;;;;;57.33;9.13;;;;;;;;;;5133062;27;20239;-81
2022/12/22 04:48:32;;;;;;;60.57;8.83;;;;;;;;;;5133284;27;20200;-81
2022/12/22 04:51:00;;;;;;;56.23;8.37;;;;;;;;;;5133395;27;20252;-81
2022/12/22 04:53:29;;;;;;;56.03;9.37;;;;;;;;;;5133218;27;20225;-81
2022/12/22 04:55:58;;;;;;;68.07;10.17;;;;;;;;;;5133525;27;20282;-81
2022/12/22 04:58:25;;;;;;;57.07;9.33;;;;;;;;;;5133662;27;20232;-81
2022/12/22 05:00:53;;;;;;;58.47;8.90;;;;;;;;;;5132766;27;20243;-81
2022/12/22 05:03:20;;;;;;;53.83;8.83;;;;;;;;;;5114150;27;20263;-81
2022/12/22 05:05:47;;;;;;;65.13;9.47;;;;;;;;;;5133604;27;20627;-81
2022/12/22 05:08:14;;;;;;;66.83;8.00;;;;;;;;;;5133503;27;20228;-81
2022/12/22 05:10:43;;;;;;;53.47;8.07;;;;;;;;;;5133387;27;20308;-81
2022/12/22 05:13:10;;;;;;;54.37;8.20;;;;;;;;;;5124081;27;20227;-81
2022/12/22 05:15:38;;;;;;;61.20;9.03;;;;;;;;;;5133083;27;20737;-81
2022/12/22 05:18:06;;;;;;;52.53;8.77;;;;;;;;;;5131937;27;20229;-81
2022/12/22 05:20:33;;;;;;;66.07;8.90;;;;;;;;;;5132757;27;20189;-80
2022/12/22 05:23:00;;;;;;;56.53;8.20;;;;;;;;;;5133214;27;20224;-81
2022/12/22 05:25:27;;;;;;;61.30;9.00;;;;;;;;;;5133601;28;20286;-81
2022/12/22 05:27:56;;;;;;;50.77;7.67;;;;;;;;;;5132496;27;20707;-81
2022/12/22 05:30:23;;;;;;;53.40;8.50;;;;;;;;;;5133271;28;20263;-81
2022/12/22 05:32:50;;;;;;;62.67;9.00;;;;;;;;;;5132037;28;20663;-81
2022/12/22 05:35:18;;;;;;;57.80;8.33;;;;;;;;;;5133335;28;20640;-81
2022/12/22 05:37:45;;;;;;;58.63;8.57;;;;;;;;;;5128777;28;20231;-81
2022/12/22 05:40:12;;;;;;;50.10;8.37;;;;;;;;;;5150979;27;20238;-81
2022/12/22 05:42:40;;;;;;;46.10;8.27;;;;;;;;;;5132808;28;20233;-81
2022/12/22 05:45:11;;;;;;;54.37;10.23;;;;;;;;;;5132804;28;20629;-81
2022/12/22 05:47:38;;;;;;;57.60;8.43;;;;;;;;;;5132663;28;20737;-82
2022/12/22 05:50:06;;;;;;;53.47;8.60;;;;;;;;;;5132527;28;20228;-81
2022/12/22 05:52:33;;;;;;;56.00;9.50;;;;;;;;;;5133119;28;20232;-82
2022/12/22 05:55:00;;;;;;;48.53;8.27;;;;;;;;;;5132245;28;20229;-82
2022/12/22 05:57:27;;;;;;;59.17;10.00;;;;;;;;;;5133360;28;20229;-81
2022/12/22 05:59:55;;;;;;;53.20;8.37;;;;;;;;;;5133063;28;20704;-81
2022/12/22 06:02:23;;;;;;;53.43;8.20;;;;;;;;;;5131299;28;20228;-80
2022/12/22 06:04:51;;;;;;;51.63;8.23;;;;;;;;;;5112248;28;20236;-81
2022/12/22 06:07:18;;;;;;;52.47;7.60;;;;;;;;;;5127624;28;20232;-80
2022/12/22 06:09:45;;;;;;;48.00;8.43;;;;;;;;;;5131834;28;20232;-81
2022/12/22 06:12:13;;;;;;;53.93;8.47;;;;;;;;;;5132687;28;20256;-81
2022/12/22 06:14:40;;;;;;;59.63;8.97;;;;;;;;;;5132397;28;20694;-80
2022/12/22 06:17:07;;;;;;;56.57;9.07;;;;;;;;;;5131203;28;20224;-81
2022/12/22 06:19:36;;;;;;;53.00;9.10;;;;;;;;;;5132030;28;20240;-81
2022/12/22 06:22:03;;;;;;;50.83;9.90;;;;;;;;;;5131940;28;20671;-81
2022/12/22 06:24:30;;;;;;;51.87;8.77;;;;;;;;;;5132519;28;20228;-81
2022/12/22 06:26:57;;;;;;;53.37;8.87;;;;;;;;;;5131389;28;20225;-82
2022/12/22 06:29:25;;;;;;;63.00;8.83;;;;;;;;;;5131957;28;20244;-81
2022/12/22 06:31:52;;;;;;;60.13;9.30;;;;;;;;;;5131723;28;20252;-81
2022/12/22 06:34:20;;;;;;;57.57;8.70;;;;;;;;;;5132273;28;20236;-81
2022/12/22 06:36:49;;;;;;;52.83;8.80;;;;;;;;;;5132096;28;20201;-81
2022/12/22 06:39:17;;;;;;;49.50;8.90;;;;;;;;;;5132085;27;20224;-81
2022/12/22 06:44:29;;;;;;;52.90;8.73;;;;;;;;;;5133820;27;20242;-80
2022/12/22 06:46:56;;;;;;;54.27;8.80;;;;;;;;;;5130379;27;20232;-81
2022/12/22 06:49:23;;;;;;;54.80;8.40;;;;;;;;;;5119884;27;20231;-81
2022/12/22 06:51:52;;;;;;;59.17;8.20;;;;;;;;;;5134994;27;20333;-81
2022/12/22 06:54:19;;;;;;;43.30;7.63;;;;;;;;;;5135467;27;20202;-81
2022/12/22 06:56:46;;;;;;;57.90;8.63;;;;;;;;;;5135691;27;20233;-82
2022/12/22 06:59:14;;;;;;;60.67;8.60;;;;;;;;;;5126054;27;20627;-81
2022/12/22 07:01:42;;;;;;;54.83;8.80;;;;;;;;;;5119423;27;20830;-81
2022/12/22 07:04:09;;;;;;;54.80;8.93;;;;;;;;;;5134175;27;20614;-81
2022/12/22 07:06:36;;;;;;;55.00;8.40;;;;;;;;;;5130610;27;20292;-81
2022/12/22 07:09:05;;;;;;;54.67;7.73;;;;;;;;;;5135157;27;20229;-81
2022/12/22 07:11:32;;;;;;;50.57;8.47;;;;;;;;;;5135573;27;20256;-82
2022/12/22 07:13:59;;;;;;;60.40;8.77;;;;;;;;;;5135203;27;20240;-82
2022/12/22 07:16:27;;;;;;;44.63;9.23;;;;;;;;;;5120543;27;20958;-81
2022/12/22 07:18:54;;;;;;;58.47;8.67;;;;;;;;;;5134677;27;20197;-82
2022/12/22 07:21:21;;;;;;;52.27;9.23;;;;;;;;;;5134429;27;20203;-81
2022/12/22 07:23:48;;;;;;;50.93;8.50;;;;;;;;;;5135193;27;20224;-81
2022/12/22 07:26:17;;;;;;;57.37;8.60;;;;;;;;;;5133560;27;20698;-80
2022/12/22 07:28:44;;;;;;;46.27;7.80;;;;;;;;;;5134683;27;20224;-81
2022/12/22 07:31:13;;;;;;;49.93;8.90;;;;;;;;;;5135744;27;20256;-82
2022/12/22 07:33:40;;;;;;;58.60;8.17;;;;;;;;;;5134866;27;20599;-82
2022/12/22 07:36:08;;;;;;;46.63;7.87;;;;;;;;;;5136214;27;20254;-82
2022/12/22 07:38:36;;;;;;;47.90;7.80;;;;;;;;;;5135807;27;20699;-82
2022/12/22 07:42:43;;;;;;;53.63;8.93;;;;;;;;;;5134696;27;20225;-78
2022/12/22 07:43:52;;;;;;;50.60;8.03;;;;;;;;;;5114361;27;20197;-81
2022/12/22 07:46:20;;;;;;;53.30;8.13;;;;;;;;;;5121976;27;20200;-80
2022/12/22 07:51:35;;;;;;;45.77;7.50;;;;;;;;;;5128802;27;20224;-80
2022/12/22 07:54:02;;;;;;;43.27;6.73;;;;;;;;;;5134646;27;20237;-80
2022/12/22 07:56:29;;;;;;;56.23;8.50;;;;;;;;;;5134118;27;20684;-79
2022/12/22 07:58:58;;;;;;;49.17;8.00;;;;;;;;;;5133971;27;20224;-80
2022/12/22 08:01:25;;;;;;;57.13;9.10;;;;;;;;;;5133897;27;20232;-79
2022/12/22 08:03:52;;;;;;;55.07;8.77;;;;;;;;;;5133808;27;20282;-80
2022/12/22 08:06:20;;;;;;;57.47;8.33;;;;;;;;;;5133750;27;20620;-80
2022/12/22 08:08:47;;;;;;;50.10;7.57;;;;;;;;;;5133505;27;20225;-80
2022/12/22 08:11:14;;;;;;;52.23;7.53;;;;;;;;;;5132732;27;20295;-80
2022/12/22 08:13:42;;;;;;;51.03;8.00;;;;;;;;;;5134042;27;20224;-80
2022/12/22 08:16:12;;;;;;;57.00;8.53;;;;;;;;;;5133397;27;20197;-80
2022/12/22 08:18:39;;;;;;;45.90;9.10;;;;;;;;;;5133975;27;20193;-80
2022/12/22 08:21:07;;;;;;;53.83;8.03;;;;;;;;;;5133400;27;20217;-80
2022/12/22 08:23:35;;;;;;;50.87;8.43;;;;;;;;;;5132353;27;20208;-80
2022/12/22 08:26:06;;;;;;;57.87;8.33;;;;;;;;;;5133159;27;20205;-80
2022/12/22 08:28:34;;;;;;;42.33;7.63;;;;;;;;;;5133232;27;20204;-81
2022/12/22 08:31:02;;;;;;;50.00;8.03;;;;;;;;;;5133680;27;20745;-81
2022/12/22 08:33:31;;;;;;;42.87;8.13;;;;;;;;;;5133127;27;20240;-81
2022/12/22 08:35:58;;;;;;;49.40;7.70;;;;;;;;;;5133404;27;20201;-79
2022/12/22 08:38:26;;;;;;;52.73;8.50;;;;;;;;;;5131735;27;20201;-78
2022/12/22 08:40:53;;;;;;;47.60;7.53;;;;;;;;;;5131115;27;20201;-81
2022/12/22 08:43:21;;;;;;;43.93;8.10;;;;;;;;;;5132045;27;20243;-79
2022/12/22 08:45:48;;;;;;;54.60;8.40;;;;;;;;;;5131811;27;20574;-79
2022/12/22 08:48:15;;;;;;;46.00;8.03;;;;;;;;;;5133584;27;20231;-79
2022/12/22 08:50:44;;;;;;;55.83;8.67;;;;;;;;;;5132944;27;20276;-79
2022/12/22 08:53:11;;;;;;;57.60;9.03;;;;;;;;;;5131419;27;20252;-79
2022/12/22 08:55:38;;;;;;;46.43;7.70;;;;;;;;;;5132023;27;20221;-78
2022/12/22 08:58:06;;;;;;;58.07;9.70;;;;;;;;;;5132764;27;20243;-78
2022/12/22 09:00:33;;;;;;;52.17;9.77;;;;;;;;;;5132776;27;20236;-79
2022/12/22 09:03:00;;;;;;;50.50;8.27;;;;;;;;;;5130268;27;20308;-79
2022/12/22 09:05:27;;;;;;;48.73;8.37;;;;;;;;;;5130970;27;20663;-78
2022/12/22 09:07:56;;;;;;;54.43;8.50;;;;;;;;;;5129855;27;20221;-79
2022/12/22 09:10:23;;;;;;;50.77;9.50;;;;;;;;;;5126725;27;20231;-78
2022/12/22 09:12:50;;;;;;;47.60;8.53;;;;;;;;;;5132123;27;20260;-79
2022/12/22 09:15:18;;;;;;;53.90;9.07;;;;;;;;;;5132493;27;20219;-79
2022/12/22 09:17:45;;;;;;;44.47;8.23;;;;;;;;;;5133038;27;20201;-78
2022/12/22 09:20:13;;;;;;;51.10;8.53;;;;;;;;;;5131048;27;20280;-79
2022/12/22 09:22:41;;;;;;;43.43;7.87;;;;;;;;;;5132731;27;20558;-79
2022/12/22 09:25:10;;;;;;;49.93;8.20;;;;;;;;;;5126060;27;20232;-80
2022/12/22 09:27:37;;;;;;;52.67;8.30;;;;;;;;;;5129670;28;20228;-79
2022/12/22 09:30:05;;;;;;;43.10;7.53;;;;;;;;;;5132298;28;20248;-79
2022/12/22 09:32:32;;;;;;;43.33;7.73;;;;;;;;;;5132322;28;20304;-80
2022/12/22 09:34:59;;;;;;;47.93;8.60;;;;;;;;;;5132916;28;20220;-79
2022/12/22 09:37:27;;;;;;;44.27;8.60;;;;;;;;;;5131958;28;20231;-79
2022/12/22 09:39:54;;;;;;;42.87;7.27;;;;;;;;;;5131914;28;20700;-79
2022/12/22 09:42:22;;;;;;;46.70;7.80;;;;;;;;;;5131200;28;20708;-79
2022/12/22 09:44:51;;;;;;;45.73;8.57;;;;;;;;;;5133313;28;20247;-79
2022/12/22 09:47:22;;;;;;;46.93;8.40;;;;;;;;;;5132562;28;20236;-79
2022/12/22 09:49:49;;;;;;;42.30;8.20;;;;;;;;;;5131674;28;20232;-79
2022/12/22 09:52:23;;;;;;;44.63;7.83;;;;;;;;;;5132094;28;20716;-79
2022/12/22 09:54:50;;;;;;;55.80;8.57;;;;;;;;;;5127792;28;20228;-78
2022/12/22 09:57:17;;;;;;;51.07;8.53;;;;;;;;;;5131986;28;20228;-79
2022/12/22 09:59:46;;;;;;;43.30;7.50;;;;;;;;;;5111151;28;20239;-79
2022/12/22 10:02:24;;;;;;;50.27;8.07;;;;;;;;;;5132741;28;20229;-77
2022/12/22 10:04:59;;;;;;;45.63;7.97;;;;;;;;;;5131810;28;20220;-79
2022/12/22 10:07:31;;;;;;;38.93;7.47;;;;;;;;;;5124538;28;20243;-80
2022/12/22 10:09:58;;;;;;;48.97;7.87;;;;;;;;;;5122532;28;20221;-79
2022/12/22 10:12:26;;;;;;;54.63;7.73;;;;;;;;;;5128410;28;20267;-79
2022/12/22 10:14:55;;;;;;;43.33;7.30;;;;;;;;;;5121654;27;20205;-77
2022/12/22 10:17:23;;;;;;;43.03;7.13;;;;;;;;;;5136403;27;20572;-80
2022/12/22 10:19:51;;;;;;;45.77;7.70;;;;;;;;;;5135978;27;20203;-80
2022/12/22 10:22:21;;;;;;;39.60;7.33;;;;;;;;;;5136114;27;20224;-79
2022/12/22 10:24:54;;;;;;;42.83;7.10;;;;;;;;;;5135862;27;20640;-79
2022/12/22 10:27:22;;;;;;;42.67;7.40;;;;;;;;;;5134895;27;20243;-80
2022/12/22 10:29:49;;;;;;;42.50;7.97;;;;;;;;;;5118478;27;20232;-80
2022/12/22 10:32:21;;;;;;;39.50;7.27;;;;;;;;;;5115494;28;20264;-79
2022/12/22 10:34:59;;;;;;;44.70;8.03;;;;;;;;;;5115459;28;20202;-79
2022/12/22 10:37:31;;;;;;;46.03;8.43;;;;;;;;;;5125900;27;20668;-79
2022/12/22 10:39:59;;;;;;;42.17;7.93;;;;;;;;;;5135059;27;20251;-79
2022/12/22 10:42:26;;;;;;;40.03;8.10;;;;;;;;;;5135865;27;20628;-79
2022/12/22 10:44:53;;;;;;;48.20;8.23;;;;;;;;;;5135989;27;20237;-79
2022/12/22 10:47:24;;;;;;;47.73;8.23;;;;;;;;;;5136013;27;20262;-79
2022/12/22 10:49:52;;;;;;;47.63;8.50;;;;;;;;;;5135374;27;20572;-79
2022/12/22 10:52:22;;;;;;;45.00;8.43;;;;;;;;;;5135407;27;20317;-79
2022/12/22 10:54:49;;;;;;;44.53;7.83;;;;;;;;;;5128831;27;20236;-79
2022/12/22 10:57:30;;;;;;;48.07;8.77;;;;;;;;;;5135714;27;20703;-79
2022/12/22 10:59:58;;;;;;;45.63;8.07;;;;;;;;;;5135390;27;20189;-79
2022/12/22 11:02:32;;;;;;;47.77;8.70;;;;;;;;;;5134731;27;20256;-79
2022/12/22 11:05:04;;;;;;;45.63;8.40;;;;;;;;;;5132105;27;20239;-79
2022/12/22 11:07:32;;;;;;;48.87;8.57;;;;;;;;;;5126113;27;20665;-79
2022/12/22 11:09:59;;;;;;;53.20;9.23;;;;;;;;;;5135105;27;20220;-79
2022/12/22 11:12:32;;;;;;;43.57;8.73;;;;;;;;;;5130196;27;20308;-79
2022/12/22 11:15:02;;;;;;;50.93;8.93;;;;;;;;;;5134160;27;20235;-79
2022/12/22 11:17:35;;;;;;;48.27;9.00;;;;;;;;;;5134745;27;20201;-79
2022/12/22 11:20:20;;;;;;;52.57;8.07;;;;;;;;;;5135170;27;20626;-79
2022/12/22 11:22:50;;;;;;;45.20;7.70;;;;;;;;;;5116948;27;20634;-79
2022/12/22 11:25:27;;;;;;;46.30;8.50;;;;;;;;;;5134252;27;20235;-79
2022/12/22 11:28:02;;;;;;;49.07;11.37;;;;;;;;;;5134972;27;20236;-80
2022/12/22 11:30:35;;;;;;;39.67;8.10;;;;;;;;;;5133761;27;20642;-79
2022/12/22 11:33:10;;;;;;;48.23;8.93;;;;;;;;;;5128722;27;20320;-79
2022/12/22 11:35:43;;;;;;;54.60;8.63;;;;;;;;;;5134538;27;20228;-79
2022/12/22 11:38:14;;;;;;;50.87;8.83;;;;;;;;;;5134845;27;20240;-79
2022/12/22 11:40:44;;;;;;;46.20;8.00;;;;;;;;;;5134589;27;20236;-79
2022/12/22 11:43:18;;;;;;;44.83;7.77;;;;;;;;;;5134658;27;20211;-79
2022/12/22 11:45:49;;;;;;;47.70;8.70;;;;;;;;;;5133843;27;20291;-79
2022/12/22 11:48:29;;;;;;;35.40;6.73;;;;;;;;;;5134630;27;20632;-79
2022/12/22 11:50:57;;;;;;;40.37;7.03;;;;;;;;;;5134044;27;20243;-79
2022/12/22 11:53:35;;;;;;;36.17;6.37;;;;;;;;;;5134066;27;20271;-79
2022/12/22 11:56:06;;;;;;;29.50;7.17;;;;;;;;;;5134903;27;20261;-79
2022/12/22 11:58:44;;;;;;;30.47;5.97;;;;;;;;;;5133444;27;20212;-79
2022/12/22 12:01:17;;;;;;;29.20;5.97;;;;;;;;;;5134096;27;20228;-79
2022/12/22 12:03:58;;;;;;;28.20;5.40;;;;;;;;;;5133483;27;20759;-79
2022/12/22 12:06:29;;;;;;;20.87;5.43;;;;;;;;;;5133821;27;20222;-79
2022/12/22 12:09:01;;;;;;;24.87;4.63;;;;;;;;;;5134458;27;20244;-79
2022/12/22 12:11:30;;;;;;;19.90;4.43;;;;;;;;;;5134714;27;20224;-79
2022/12/22 12:14:04;;;;;;;16.00;4.27;;;;;;;;;;5132777;27;20252;-79
2022/12/22 12:16:34;;;;;;;16.43;4.13;;;;;;;;;;5133814;27;20205;-79
2022/12/22 12:19:12;;;;;;;18.77;4.00;;;;;;;;;;5133349;27;20233;-79
2022/12/22 12:21:43;;;;;;;16.53;3.93;;;;;;;;;;5128747;27;20707;-79
2022/12/22 12:24:21;;;;;;;19.17;4.50;;;;;;;;;;5133709;27;20228;-79
2022/12/22 12:26:55;;;;;;;14.17;3.60;;;;;;;;;;5134078;27;20232;-79
2022/12/22 12:29:24;;;;;;;13.10;3.67;;;;;;;;;;5134055;27;20259;-79
2022/12/22 12:31:56;;;;;;;15.90;3.60;;;;;;;;;;5133298;27;20192;-79
2022/12/22 12:34:26;;;;;;;14.17;4.07;;;;;;;;;;5113229;28;20256;-79
2022/12/22 12:36:56;;;;;;;12.13;3.53;;;;;;;;;;5118497;27;20233;-79
2022/12/22 12:39:27;;;;;;;9.53;2.77;;;;;;;;;;5133114;27;20239;-78
2022/12/22 12:41:59;;;;;;;9.40;2.90;;;;;;;;;;5132939;27;20750;-79
2022/12/22 12:44:28;;;;;;;6.50;2.27;;;;;;;;;;5133092;27;20232;-80
2022/12/22 12:47:05;;;;;;;9.97;3.07;;;;;;;;;;5132570;27;20723;-80
2022/12/22 12:49:53;;;;;;;9.57;2.70;;;;;;;;;;5132877;27;20258;-80
2022/12/22 12:52:49;;;;;;;7.53;2.70;;;;;;;;;;5126085;27;20228;-79
2022/12/22 12:55:26;;;;;;;7.07;3.27;;;;;;;;;;5123597;27;20193;-79
2022/12/22 12:57:53;;;;;;;8.43;2.83;;;;;;;;;;5132419;27;20232;-79
2022/12/22 13:00:39;;;;;;;6.03;2.43;;;;;;;;;;5132171;27;20233;-79
2022/12/22 13:03:06;;;;;;;5.00;2.00;;;;;;;;;;5132231;27;20225;-79
2022/12/22 13:05:49;;;;;;;3.73;1.80;;;;;;;;;;5130163;27;20229;-79
2022/12/22 13:08:17;;;;;;;7.13;2.00;;;;;;;;;;5130037;27;20289;-79
2022/12/22 13:10:46;;;;;;;5.67;1.80;;;;;;;;;;5132241;27;20232;-79
2022/12/22 13:13:34;;;;;;;5.03;1.60;;;;;;;;;;5132802;27;20304;-79
2022/12/22 13:16:20;;;;;;;7.07;2.23;;;;;;;;;;5132530;27;20205;-79
2022/12/22 13:18:47;;;;;;;5.87;1.60;;;;;;;;;;5132158;27;20228;-79
2022/12/22 13:21:21;;;;;;;3.83;1.60;;;;;;;;;;5131939;27;20236;-80
2022/12/22 13:23:51;;;;;;;4.10;1.37;;;;;;;;;;5132535;27;20215;-79
2022/12/22 13:26:19;;;;;;;4.30;1.53;;;;;;;;;;5132161;27;20277;-79
2022/12/22 13:28:49;;;;;;;2.37;1.20;;;;;;;;;;5132080;28;20238;-80
2022/12/22 13:31:19;;;;;;;3.40;1.53;;;;;;;;;;5132321;28;20259;-79
2022/12/22 13:33:46;;;;;;;4.47;2.13;;;;;;;;;;5132665;28;20273;-79
2022/12/22 13:36:19;;;;;;;4.50;2.63;;;;;;;;;;5132076;28;20224;-79
2022/12/22 13:38:46;;;;;;;4.23;2.57;;;;;;;;;;5131333;28;20692;-79
2022/12/22 13:41:15;;;;;;;4.50;2.03;;;;;;;;;;5131696;28;20225;-79
2022/12/22 13:43:45;;;;;;;5.67;2.40;;;;;;;;;;5132189;28;20216;-79
2022/12/22 13:46:12;;;;;;;3.77;1.60;;;;;;;;;;5131715;28;20231;-79
2022/12/22 13:48:40;;;;;;;6.10;2.53;;;;;;;;;;5132221;27;20225;-79
2022/12/22 13:51:09;;;;;;;4.70;2.50;;;;;;;;;;5136602;27;20201;-80
2022/12/22 13:53:39;;;;;;;3.20;1.97;;;;;;;;;;5136756;27;20723;-79
2022/12/22 13:56:07;;;;;;;2.93;1.93;;;;;;;;;;5136118;27;20292;-79
2022/12/22 13:58:36;;;;;;;4.30;2.57;;;;;;;;;;5135727;27;20232;-79
2022/12/22 14:01:15;;;;;;;4.73;2.50;;;;;;;;;;5136319;27;20198;-79
2022/12/22 14:03:46;;;;;;;5.60;2.33;;;;;;;;;;5135958;27;20300;-79
2022/12/22 14:06:27;;;;;;;5.57;2.40;;;;;;;;;;5136928;27;20251;-79
2022/12/22 14:09:09;;;;;;;4.80;2.63;;;;;;;;;;5135820;27;20707;-79
2022/12/22 14:11:36;;;;;;;3.30;2.00;;;;;;;;;;5136291;27;20201;-79
2022/12/22 14:14:07;;;;;;;4.37;1.83;;;;;;;;;;5134133;27;20269;-80
2022/12/22 14:16:34;;;;;;;3.20;1.90;;;;;;;;;;5133637;27;20241;-80
2022/12/22 14:19:01;;;;;;;2.07;1.40;;;;;;;;;;5128845;27;20224;-80
2022/12/22 14:21:28;;;;;;;3.60;1.83;;;;;;;;;;5131081;27;20611;-80
2022/12/22 14:23:57;;;;;;;1.83;1.20;;;;;;;;;;5135008;27;20224;-80
2022/12/22 14:26:27;;;;;;;2.57;1.30;;;;;;;;;;5132762;27;20243;-80
2022/12/22 14:28:55;;;;;;;2.27;1.30;;;;;;;;;;5134586;27;20284;-80
2022/12/22 14:31:22;;;;;;;3.23;1.50;;;;;;;;;;5136649;27;20232;-80
2022/12/22 14:33:53;;;;;;;2.40;1.27;;;;;;;;;;5134877;27;20255;-79
2022/12/22 14:36:22;;;;;;;2.27;1.00;;;;;;;;;;5134679;27;20688;-79
2022/12/22 14:38:50;;;;;;;2.10;1.40;;;;;;;;;;5130142;27;20712;-79
2022/12/22 14:41:43;;;;;;;2.10;1.20;;;;;;;;;;5133964;27;20236;-80
2022/12/22 14:44:14;;;;;;;3.33;1.30;;;;;;;;;;5132197;27;20281;-80
2022/12/22 14:46:42;;;;;;;2.53;1.30;;;;;;;;;;5134701;27;20235;-79
2022/12/22 14:49:14;;;;;;;2.13;1.33;;;;;;;;;;5139170;27;20244;-80
2022/12/22 14:51:41;;;;;;;2.10;1.00;;;;;;;;;;5126751;27;20220;-81
2022/12/22 14:54:18;;;;;;;4.13;1.10;;;;;;;;;;5134207;27;20227;-80
2022/12/22 14:56:49;;;;;;;2.13;1.10;;;;;;;;;;5135213;27;20224;-80
2022/12/22 14:59:23;;;;;;;1.93;1.20;;;;;;;;;;5134046;27;20200;-80
2022/12/22 15:01:57;;;;;;;2.60;1.30;;;;;;;;;;5132010;27;20200;-80
2022/12/22 15:04:24;;;;;;;3.50;1.60;;;;;;;;;;5114099;28;20252;-80
2022/12/22 15:06:51;;;;;;;3.80;1.60;;;;;;;;;;5112958;28;20673;-81
2022/12/22 15:09:31;;;;;;;4.03;1.90;;;;;;;;;;5109973;28;20240;-80
2022/12/22 15:12:05;;;;;;;3.00;1.70;;;;;;;;;;5111691;28;20190;-79
2022/12/22 15:14:36;;;;;;;3.57;2.53;;;;;;;;;;5110169;28;20245;-79
2022/12/22 15:21:03;;;;;;;3.23;1.73;;;;;;;;;;5069407;28;20266;-79
2022/12/22 15:23:58;;;;;;;2.93;1.50;;;;;;;;;;5059183;28;20486;-79
2022/12/22 15:34:45;;;;;;;4.00;3.60;;;;;;;;;;5012304;28;20235;-78
2022/12/22 15:40:31;;;;;;;4.23;2.77;;;;;;;;;;5005167;28;20224;-79
2022/12/22 15:43:20;;;;;;;5.03;3.10;;;;;;;;;;5010394;28;20275;-79
2022/12/22 15:46:07;;;;;;;2.43;1.80;;;;;;;;;;5012199;28;20324;-81
2022/12/22 15:48:38;;;;;;;2.70;2.10;;;;;;;;;;5012909;28;20263;-82
2022/12/22 15:54:33;;;;;;;2.77;1.67;;;;;;;;;;5011131;28;20228;-79
2022/12/22 16:05:31;;;;;;;3.93;1.40;;;;;;;;;;5065717;28;20733;-76
2022/12/22 16:08:12;;;;;;;4.10;1.50;;;;;;;;;;5071053;28;20206;-77
2022/12/22 16:11:17;;;;;;;3.90;1.70;;;;;;;;;;5070702;28;20290;-76
2022/12/22 16:13:52;;;;;;;4.13;1.70;;;;;;;;;;5071579;28;20227;-78
2022/12/22 16:16:50;;;;;;;;;;;;;;;;;;;;;
2022/12/22 16:19:26;;;;;;;4.10;2.03;;;;;;;;;;5014194;28;20584;-80
2022/12/22 16:22:11;;;;;;;4.00;1.70;;;;;;;;;;5063675;28;20207;-78
2022/12/22 16:25:03;;;;;;;6.60;1.93;;;;;;;;;;5044883;28;20207;-79
2022/12/22 16:27:49;;;;;;;4.40;2.40;;;;;;;;;;5052286;28;20196;-78
2022/12/22 16:30:40;;;;;;;6.97;3.10;;;;;;;;;;5037411;28;20219;-78
2022/12/22 16:33:12;;;;;;;4.47;2.13;;;;;;;;;;5036320;28;20231;-78
2022/12/22 16:48:44;;;;;;;6.80;2.47;;;;;;;;;;4875528;29;20184;-78
2022/12/22 16:51:23;;;;;;;5.43;2.67;;;;;;;;;;4918498;29;20290;-77
2022/12/22 17:00:19;;;;;;;;;;;;;;;;;;;;;
2022/12/22 17:03:05;;;;;;;4.17;2.57;;;;;;;;;;5071604;23;20238;-77
2022/12/22 17:06:11;;;;;;;5.20;2.47;;;;;;;;;;5069755;28;20230;-77
2022/12/22 17:14:49;;;;;;;5.70;2.23;;;;;;;;;;5058859;28;20234;-79
2022/12/22 17:17:51;;;;;;;5.57;2.17;;;;;;;;;;5065759;28;20284;-78
2022/12/22 17:23:49;;;;;;;5.63;3.07;;;;;;;;;;5051334;28;20195;-79
2022/12/22 17:26:36;;;;;;;;;;;;;;;;;;;;;
2022/12/22 17:35:52;;;;;;;6.40;2.80;;;;;;;;;;4926162;29;20767;-78
2022/12/22 17:38:37;;;;;;;4.90;2.63;;;;;;;;;;4914516;29;20215;-78
2022/12/22 17:41:40;;;;;;;4.93;2.47;;;;;;;;;;4922710;29;20205;-78
2022/12/22 17:44:17;;;;;;;;;;;;;;;;;;;;;
2022/12/22 17:47:04;;;;;;;5.70;2.70;;;;;;;;;;4928244;29;20211;-78
2022/12/22 17:49:53;;;;;;;5.63;2.77;;;;;;;;;;4936069;29;20199;-77
2022/12/22 17:58:27;;;;;;;10.83;3.20;;;;;;;;;;4821280;29;20246;-78
2022/12/22 18:00:55;;;;;;;8.67;3.97;;;;;;;;;;4818670;29;20740;-76
2022/12/22 18:03:32;;;;;;;6.53;4.00;;;;;;;;;;4820194;29;20243;-76
2022/12/22 18:06:06;;;;;;;6.97;3.40;;;;;;;;;;4819645;29;20684;-77
2022/12/22 18:11:39;;;;;;;5.97;2.80;;;;;;;;;;4881170;28;20212;-76
2022/12/22 18:14:13;;;;;;;8.80;3.23;;;;;;;;;;4969704;28;20633;-77
2022/12/22 18:17:03;;;;;;;8.73;3.30;;;;;;;;;;4969527;28;20698;-77
2022/12/22 18:19:53;;;;;;;7.00;3.53;;;;;;;;;;4968075;28;20709;-77
2022/12/22 18:22:50;;;;;;;6.80;3.27;;;;;;;;;;4982712;28;20629;-77
2022/12/22 18:28:20;;;;;;;8.00;3.17;;;;;;;;;;5005077;28;20263;-77
2022/12/22 18:33:59;;;;;;;6.57;3.43;;;;;;;;;;3378680;26;20246;-77
2022/12/22 18:36:38;;;;;;;7.10;2.93;;;;;;;;;;4994991;28;20207;-78
2022/12/22 18:45:32;;;;;;;;;;;;;;;;;;;;;
2022/12/22 18:48:23;;;;;;;8.83;3.00;;;;;;;;;;4999513;28;20201;-76
2022/12/22 18:56:50;;;;;;;5.23;2.40;;;;;;;;;;5008920;28;20255;-77
2022/12/22 19:06:00;;;;;;;7.67;2.33;;;;;;;;;;5068383;22;20227;-77
2022/12/22 19:11:35;;;;;;;7.87;2.80;;;;;;;;;;5019704;28;20279;-79
2022/12/22 19:14:21;;;;;;;7.23;3.60;;;;;;;;;;5042526;28;20210;-77
2022/12/22 19:19:41;;;;;;;6.17;2.80;;;;;;;;;;5041640;28;20962;-77
2022/12/22 19:22:40;;;;;;;6.97;2.40;;;;;;;;;;5028727;28;20211;-77
2022/12/22 19:25:25;;;;;;;6.63;2.10;;;;;;;;;;5037609;28;20214;-77
2022/12/22 19:31:25;;;;;;;8.80;3.10;;;;;;;;;;5039391;28;20224;-79
2022/12/22 19:46:12;;;;;;;9.57;3.07;;;;;;;;;;4959343;28;20271;-77
2022/12/22 19:48:59;;;;;;;;;;;;;;;;;;;;;
2022/12/22 19:51:46;;;;;;;;;;;;;;;;;;;;;
2022/12/22 19:57:40;;;;;;;9.30;2.80;;;;;;;;;;4919883;28;20287;-76
2022/12/22 20:06:41;;;;;;;11.00;3.90;;;;;;;;;;4956879;28;20725;-79
2022/12/22 20:09:27;;;;;;;13.77;3.87;;;;;;;;;;4965612;28;20214;-77
2022/12/22 20:12:37;;;;;;;12.93;4.10;;;;;;;;;;4965824;28;20209;-77
2022/12/22 20:15:14;;;;;;;11.97;3.87;;;;;;;;;;4954819;28;20230;-76
2022/12/22 20:18:11;;;;;;;13.47;3.90;;;;;;;;;;4962868;28;20213;-77
2022/12/22 20:21:02;;;;;;;10.03;3.37;;;;;;;;;;5022458;28;20200;-77
2022/12/22 20:26:30;;;;;;;15.73;3.83;;;;;;;;;;4993125;28;20648;-77
2022/12/22 20:31:39;;;;;;;12.80;3.90;;;;;;;;;;5080783;22;20320;-78
2022/12/22 20:37:02;;;;;;;11.50;3.57;;;;;;;;;;5056078;28;20210;-78
2022/12/22 20:42:53;;;;;;;11.07;3.70;;;;;;;;;;5057303;28;20207;-77
2022/12/22 20:45:57;;;;;;;12.67;3.57;;;;;;;;;;5060303;28;20282;-78
2022/12/22 20:55:23;;;;;;;11.87;3.33;;;;;;;;;;5000345;28;20862;-78
2022/12/22 20:58:09;;;;;;;15.33;3.47;;;;;;;;;;4997701;28;20201;-78
2022/12/22 21:06:34;;;;;;;14.63;4.00;;;;;;;;;;1059054;26;20677;-77
2022/12/22 21:09:04;;;;;;;15.03;3.70;;;;;;;;;;5085878;28;20206;-77
2022/12/22 21:11:45;;;;;;;;;;;;;;;;;;;;;
2022/12/22 21:14:16;;;;;;;17.33;3.63;;;;;;;;;;5069666;28;20213;-77
2022/12/22 21:16:48;;;;;;;11.93;3.40;;;;;;;;;;5088588;28;20290;-76
2022/12/22 21:19:20;;;;;;;17.57;4.33;;;;;;;;;;5088248;28;20202;-77
2022/12/22 21:21:57;;;;;;;13.63;4.07;;;;;;;;;;5089531;28;20206;-77